PROFILE

 METAR AND TAF INFORMATION
ADDS - METARS form results

(0517 UTC 26 January 2021)
http://aviationweather.gov/metar/data/
 
CYVR 260500Z 10010KT 15SM FEW020 FEW027 SCT048 SCT057 02/01 A2983 RMK CU1CU1SC1SC1 SLP104
CYVR 260423Z 10009KT 15SM SCT027 BKN056 02/01 A2983 RMK CU3SC2 SLP104
TAF CYVR 260238Z 2603/2706 08008KT P6SM SCT015 BKN040 TEMPO 2603/2607 5SM -SHRA BR SCT008 BKN015 OVC030 PROB30 2603/2607 3SM TSRA BR SCT008 BKN012 OVC030CB FM260700 09010KT P6SM SCT012 OVC025 TEMPO 2607/2613 5SM -SHRA BR SCT008 OVC012 FM261300 09012KT P6SM SCT015 BKN030 TEMPO 2613/2619 SCT030 FM261900 09012KT P6SM SCT040 BECMG 2703/2705 08010KT BKN060 RMK NXT FCST BY 260600Z 

 AIRPORT MAP

 RUNWAY INFORMATION
Runway 08L Runway length 9940 ft Runway width 200 ft
Runway elevation 14 ft Runway displaced threshold 0 ft Runway heading 99
Runway 26R Runway length 9940 ft Runway width 200 ft
Runway elevation 9 ft Runway displaced threshold 0 ft Runway heading 279
Runway 08R Runway length 11500 ft Runway width 200 ft
Runway elevation 9 ft Runway displaced threshold 500 ft Runway heading 100
Runway 26L Runway length 11500 ft Runway width 200 ft
Runway elevation 6 ft Runway displaced threshold 0 ft Runway heading 280
Runway 13 Runway length 7300 ft Runway width 200 ft
Runway elevation 8 ft Runway displaced threshold 0 ft Runway heading 142
Runway 31 Runway length 7300 ft Runway width 200 ft
Runway elevation 7 ft Runway displaced threshold 0 ft Runway heading 322
Runway XX Runway length 3500 ft Runway width 75 ft
Runway elevation 8 ft Runway displaced threshold 0 ft Runway heading 100
Runway 26A Runway length 3500 ft Runway width 75 ft
Runway elevation 8 ft Runway displaced threshold 0 ft Runway heading 280

 AIRPORT FREQUENCIES
Type APP Name APP Frequency 128.6 MHZ
Type ATIS Name ATIS Frequency 124.6 MHZ
Type CLD Name CLNC DEL Frequency 121.4 MHZ
Type DEP Name DEP Frequency 126.125 MHZ
Type GND Name GND Frequency 121.7 MHZ
Type RCO Name PACIFIC RD Frequency 123.15 MHZ
Type TWR Name TWR Frequency 23.66 MHZ
Type TWR Name TWR Frequency 118.7 MHZ

 AIRPORT NEAR NAVIGATION AIDS
Type DME Name Vancouver Frequency 111100 KHZ
Type DME Name Vancouver Frequency 111900 KHZ
Type DME Name Vancouver Frequency 109500 KHZ
Type NDB Name Vancouver Frequency 266 KHZ
Type NDB Name White Rock Frequency 332 KHZ
Type VORTAC Name Vancouver Frequency 115900 KHZ
Type NDB Name Sea Island Frequency 368 KHZ
Type NDB Name Barnes Frequency 356 KHZ